Date,TemperatureHighF,TemperatureAvgF,TemperatureLowF,DewpointHighF,DewpointAvgF,DewpointLowF,HumidityHigh,HumidityAvg,HumidityLow,PressureMaxIn,PressureMinIn,WindSpeedMaxMPH,WindSpeedAvgMPH,GustSpeedMaxMPH,PrecipitationSumIn
2013-2-1,27.0,16.3,9.5,19.1,-3.0,-13.2,73,43,30,30.15,29.68,14,4,18,0.00
2013-2-2,25.9,17.6,7.9,19.1,0.7,-14.6,75,49,32,30.15,29.83,11,1,11,0.00
2013-2-3,30.0,25.8,21.2,17.1,9.9,-0.7,69,51,38,29.89,29.71,17,4,17,0.00
2013-2-4,35.8,25.3,14.2,27.2,7.0,-1.6,76,46,32,29.95,29.77,19,3,19,0.04
2013-2-5,39.9,36.8,34.0,26.1,21.1,16.9,72,53,45,29.83,29.74,11,2,11,0.04
2013-2-6,46.2,35.9,27.0,23.9,16.2,11.2,62,45,28,30.15,29.83,14,3,14,0.00
2013-2-7,36.7,32.7,26.4,21.9,18.4,12.6,62,55,47,30.18,29.98,10,2,10,0.04
2013-2-8,45.5,33.3,28.6,30.6,21.1,11.1,80,61,42,29.98,29.71,16,2,16,0.08
2013-2-9,45.3,29.9,20.8,12.1,5.2,1.0,50,36,20,30.21,29.98,17,3,17,0.00
2013-2-10,41.4,31.4,20.1,21.6,9.2,4.8,58,41,26,30.27,30.03,16,2,16,0.00
2013-2-11,57.9,44.9,34.7,47.9,26.5,5.3,92,54,19,30.03,29.77,21,3,21,0.04
2013-2-12,55.2,41.2,31.8,14.3,10.9,5.4,41,29,18,29.95,29.77,21,3,21,0.00
2013-2-13,41.5,34.1,31.3,27.8,19.1,10.7,82,57,29,29.86,29.50,10,0,10,0.04
2013-2-14,45.3,33.9,25.0,23.0,15.0,10.7,68,47,28,29.92,29.74,12,2,12,0.08
2013-2-15,50.7,35.9,28.0,26.6,20.8,15.3,78,57,28,29.95,29.80,12,1,12,0.00
2013-2-16,30.6,26.7,18.7,22.3,8.8,-0.1,72,47,32,29.89,29.74,0,0,0,0.00
2013-2-17,23.9,17.3,11.3,4.6,-4.7,-8.6,51,37,29,30.03,29.74,0,0,0,0.00
2013-2-18,50.7,26.2,12.9,14.9,2.4,-5.7,47,36,24,30.18,29.98,14,2,14,0.00
2013-2-19,45.7,37.0,30.0,31.6,16.7,3.1,85,46,28,29.98,29.68,22,4,22,0.16
2013-2-20,33.6,25.9,21.2,5.5,0.8,-1.8,38,33,30,30.01,29.83,23,5,23,0.00
2013-2-21,46.0,27.8,14.4,9.6,3.6,-1.6,51,36,22,30.12,29.98,9,2,9,0.00
2013-2-22,34.3,30.3,26.2,19.0,13.6,3.8,66,51,31,30.15,29.98,12,2,12,0.00
2013-2-23,56.1,39.9,30.6,29.0,24.3,18.5,70,55,31,29.98,29.71,8,1,8,0.00
2013-2-24,48.2,37.5,26.8,29.4,15.1,6.5,68,42,21,29.98,29.74,20,3,20,0.00
2013-2-25,44.8,30.8,21.2,13.7,8.8,5.8,56,40,28,30.03,29.95,10,2,10,0.00
2013-2-26,37.8,33.2,27.9,34.0,20.4,6.7,87,62,35,30.01,29.50,15,2,15,0.55
2013-2-27,40.5,37.7,34.2,33.8,24.9,18.0,91,62,42,29.65,29.50,14,3,14,0.04
2013-2-28,34.3,31.1,28.9,23.4,15.5,10.9,68,52,41,29.71,29.56,14,4,14,0.00